Aérodrome :
LOGIN :

S'inscrire | Disclaimer

   EN    FR    IT 

 










Légende :    VFR   VFR Marginal   IFR   IFR Intensif   IFR Très Intensif
Visi : 
Plafond : 
>= 8 km
>= 3000ft
5 à 8 km
1000 à 3000 ft
1500m à 5 km
500 à 1000 ft
800 à 1500m
200 à 500 ft
< 800m
< 200 ft
Symboles :   Orages  Brouillard  Fortes neiges  Fortes précipitations  Vent > 20 kt
SIGMETs :   Divers  Orages  Givrage  Turbulence  Onde Orograph.  Cendres Volcan.







- Altitude de l'aérodrome : 194 ft


EBCV - Chièvres

DERNIER METAR :
  • 191025Z AUTO 16008KT 9999 FEW110/// BKN140/// 17/12 Q1009 BLU

METARs EXPIRÉS :
  • 190955Z AUTO 16008KT 9999 FEW120/// BKN140/// 17/12 Q1009 BLU
  • 190925Z AUTO 16008KT 9999 BKN120/// 16/12 Q1009 BLU
  • 190855Z AUTO 17010KT 9999 BKN140/// 16/11 Q1010 BLU
  • 190825Z AUTO 15006KT 9999 FEW150/// 15/11 Q1009 BLU
  • 190755Z AUTO 15006KT 9999 NCD 14/11 Q1010 BLU

TAF TAF EBCV
Valide du 19 à 10h jusqu'au 19 à 19h UTC


190843Z 1910/1919 18010KT 9999 SCT120 SCT280
PROB40
TEMPO 1915/1919 8000 -SHRA SCT025 BKN040 BY EBWM
Pas de NOTAMs connus pour ce terrain.



MET'MAP, la Météo Aéronautique d'un coup d'oeil ! - Copyright ORBIFLY Décembre 2007 - Disclaimer

ORBIFLY MET'MAP TEAM :

Programmation & Développement : Alexandra Zaïnal
Conception & Développement : Baudouin d'Aumeries
Co-Programmation & Développement : Marc-Olivier Méhu
Soutien technique & logistique : Manuel Goepfert

Contact : metmap@orbifly.com




SOURCES & CREDITS :

   NOAA